Terminal Aerodrome Forecast
Issued by NWS Burlington, VT

Home | Current Version | Previous Version | Text Only | Print | Product List | Glossary On
Versions: 1 2 3 4 5 6 7 8 9 10 11 12 13 14 15 16
941
FTUS41 KBTV 282335
TAFBTV
TAF
KBTV 282335Z 2900/2924 17012KT P6SM BKN100
     FM291200 17014KT P6SM VCSH OVC090
     FM291400 15011G19KT 4SM -SHRA BR OVC080
     FM292200 16011G19KT P6SM VCSH BKN030=

USA.gov is the U.S. government's official web portal to all federal, state and local government web resources and services.